createdAt,value
2019-01-15T00:00:48.142Z,4.30
2019-01-15T00:03:16.554Z,4.38
2019-01-15T00:05:44.182Z,4.38
2019-01-15T00:08:12.063Z,4.39
2019-01-15T00:10:40.253Z,4.41
2019-01-15T00:13:10.912Z,4.38
2019-01-15T00:15:38.598Z,4.40
2019-01-15T00:18:07.208Z,4.49
2019-01-15T00:20:35.094Z,4.55
2019-01-15T00:23:03.273Z,4.46
2019-01-15T00:25:34.176Z,4.44
2019-01-15T00:28:02.021Z,4.50
2019-01-15T00:30:30.426Z,4.57
2019-01-15T00:32:59.567Z,4.60
2019-01-15T00:35:27.215Z,4.61
2019-01-15T00:37:55.131Z,4.55
2019-01-15T00:40:22.820Z,4.51
2019-01-15T00:42:53.615Z,4.58
2019-01-15T00:45:21.768Z,4.66
2019-01-15T00:47:49.399Z,4.58
2019-01-15T00:50:18.443Z,4.63
2019-01-15T00:52:46.133Z,4.64
2019-01-15T00:55:13.801Z,4.63
2019-01-15T00:57:41.520Z,4.59
2019-01-15T01:00:16.838Z,4.54
2019-01-15T01:02:44.757Z,4.47
2019-01-15T01:05:13.416Z,4.47
2019-01-15T01:07:41.592Z,4.49
2019-01-15T01:10:10.257Z,4.46
2019-01-15T01:12:38.130Z,4.48
2019-01-15T01:15:09.039Z,4.38
2019-01-15T01:17:36.919Z,4.42
2019-01-15T01:20:10.484Z,4.50
2019-01-15T01:22:38.778Z,4.49
2019-01-15T01:25:08.223Z,4.40
2019-01-15T01:27:35.983Z,4.36
2019-01-15T01:30:07.291Z,4.32
2019-01-15T01:32:34.980Z,4.23
2019-01-15T01:35:05.817Z,4.24
2019-01-15T01:37:33.728Z,4.25
2019-01-15T01:40:06.023Z,4.26
2019-01-15T01:42:33.662Z,4.17
2019-01-15T01:45:05.890Z,4.18
2019-01-15T01:47:33.662Z,4.19
2019-01-15T01:50:01.622Z,3.76
2019-01-15T01:52:29.705Z,4.26
2019-01-15T01:54:58.334Z,4.32
2019-01-15T01:57:25.984Z,4.33
2019-01-15T01:59:54.879Z,4.34
2019-01-15T02:02:22.614Z,4.33
2019-01-15T02:04:54.647Z,4.34
2019-01-15T02:07:22.781Z,4.37
2019-01-15T02:09:51.740Z,4.36
2019-01-15T02:12:24.164Z,4.36
2019-01-15T02:14:53.275Z,4.39
2019-01-15T02:17:21.009Z,4.37
2019-01-15T02:19:50.028Z,4.29
2019-01-15T02:22:21.063Z,4.22
2019-01-15T02:24:50.473Z,4.15
2019-01-15T02:27:18.284Z,4.13
2019-01-15T02:29:46.256Z,4.04
2019-01-15T02:32:13.855Z,4.15
2019-01-15T02:34:41.822Z,4.17
2019-01-15T02:37:12.684Z,4.15
2019-01-15T02:39:40.271Z,4.15
2019-01-15T02:42:12.031Z,4.17
2019-01-15T02:44:39.596Z,4.19
2019-01-15T02:47:07.314Z,4.11
2019-01-15T02:49:34.928Z,4.13
2019-01-15T02:52:02.879Z,4.10
2019-01-15T02:54:30.472Z,4.09
2019-01-15T02:56:58.077Z,4.15
2019-01-15T02:59:25.672Z,4.15
2019-01-15T03:01:53.310Z,4.11
2019-01-15T03:04:20.970Z,4.08
2019-01-15T03:06:48.871Z,3.96
2019-01-15T03:09:16.524Z,4.05
2019-01-15T03:11:44.272Z,4.10
2019-01-15T03:14:11.943Z,4.06
2019-01-15T03:16:39.561Z,4.07
2019-01-15T03:19:07.216Z,4.03
2019-01-15T03:21:35.094Z,4.02
2019-01-15T03:24:02.804Z,3.99
2019-01-15T03:26:30.597Z,4.01
2019-01-15T03:28:58.474Z,4.01
2019-01-15T03:31:26.242Z,3.98
2019-01-15T03:33:53.953Z,3.94
2019-01-15T03:36:21.952Z,3.88
2019-01-15T03:38:49.484Z,3.94
2019-01-15T03:41:17.581Z,3.86
2019-01-15T03:43:45.655Z,3.97
2019-01-15T03:46:13.400Z,3.99
2019-01-15T03:48:41.023Z,3.98
2019-01-15T03:51:09.022Z,4.09
2019-01-15T03:53:37.029Z,4.01
2019-01-15T03:56:04.767Z,4.16
2019-01-15T03:58:32.789Z,4.13
2019-01-15T04:01:00.489Z,4.15
2019-01-15T04:03:28.887Z,4.17
2019-01-15T04:05:57.136Z,4.10
2019-01-15T04:08:25.412Z,4.08
2019-01-15T04:10:53.259Z,4.13
2019-01-15T04:13:22.080Z,4.19
2019-01-15T04:15:49.756Z,4.20
2019-01-15T04:18:17.359Z,4.11
2019-01-15T04:20:45.040Z,4.19
2019-01-15T04:23:12.758Z,4.16
2019-01-15T04:25:40.534Z,4.14
2019-01-15T04:28:08.658Z,4.14
2019-01-15T04:30:36.790Z,4.15
2019-01-15T04:33:04.472Z,3.75
2019-01-15T04:35:32.700Z,4.23
2019-01-15T04:38:00.374Z,4.24
2019-01-15T04:40:28.003Z,4.19
2019-01-15T04:42:56.165Z,4.00
2019-01-15T04:45:26.794Z,4.03
2019-01-15T04:47:54.375Z,4.13
2019-01-15T04:50:24.145Z,4.14
2019-01-15T04:52:55.396Z,4.17
2019-01-15T04:55:23.098Z,4.16
2019-01-15T04:57:51.227Z,3.66
2019-01-15T05:00:19.262Z,4.21
2019-01-15T05:02:47.911Z,4.21
2019-01-15T05:05:16.244Z,4.18
2019-01-15T05:07:43.834Z,4.21
2019-01-15T05:10:28.365Z,4.18
2019-01-15T05:12:56.957Z,4.21
2019-01-15T05:15:24.980Z,3.77
2019-01-15T05:17:53.040Z,3.73
2019-01-15T05:20:21.003Z,4.24
2019-01-15T05:22:50.009Z,4.29
2019-01-15T05:25:19.251Z,4.34
2019-01-15T05:27:47.810Z,4.29
2019-01-15T05:30:18.162Z,3.77
2019-01-15T05:32:46.332Z,4.28
2019-01-15T05:35:14.533Z,4.27
2019-01-15T05:37:42.374Z,4.33
2019-01-15T05:40:10.931Z,4.37
2019-01-15T05:42:39.077Z,4.37
2019-01-15T05:45:08.629Z,4.36
2019-01-15T05:47:36.570Z,4.41
2019-01-15T05:50:09.106Z,4.42
2019-01-15T05:52:36.731Z,4.40
2019-01-15T05:55:05.874Z,4.35
2019-01-15T05:57:34.183Z,4.37
2019-01-15T06:00:02.082Z,4.38
2019-01-15T06:02:29.777Z,4.41
2019-01-15T06:04:59.022Z,4.41
2019-01-15T06:07:33.499Z,4.37
2019-01-15T06:09:57.318Z,4.31
2019-01-15T06:12:25.062Z,4.42
2019-01-15T06:14:54.239Z,4.44
2019-01-15T06:17:23.476Z,4.45
2019-01-15T06:19:58.773Z,4.48
2019-01-15T06:22:26.546Z,4.54
2019-01-15T06:24:55.035Z,4.56
2019-01-15T06:27:23.158Z,4.57
2019-01-15T06:29:52.727Z,4.49
2019-01-15T06:32:20.745Z,4.48
2019-01-15T06:34:49.426Z,4.49
2019-01-15T06:37:18.078Z,4.48
2019-01-15T06:39:46.530Z,4.49
2019-01-15T06:42:14.425Z,4.44
2019-01-15T06:44:42.126Z,4.34
2019-01-15T06:47:10.195Z,4.48
2019-01-15T06:49:37.893Z,4.49
2019-01-15T06:52:05.615Z,4.45
2019-01-15T06:54:34.854Z,4.40
2019-01-15T06:57:02.523Z,4.35
2019-01-15T06:59:34.826Z,4.33
2019-01-15T07:02:02.979Z,4.33
2019-01-15T07:04:43.644Z,4.32
2019-01-15T07:07:07.153Z,4.40
2019-01-15T07:09:35.557Z,4.45
2019-01-15T07:12:04.551Z,4.34
2019-01-15T07:14:35.387Z,4.23
2019-01-15T07:17:04.696Z,4.25
2019-01-15T07:19:32.332Z,4.29
2019-01-15T07:22:05.330Z,4.26
2019-01-15T07:24:33.690Z,4.33
2019-01-15T07:27:03.538Z,4.35
2019-01-15T07:29:31.314Z,4.44
2019-01-15T07:32:00.866Z,4.47
2019-01-15T07:34:29.144Z,4.36
2019-01-15T07:37:00.440Z,4.42
2019-01-15T07:39:28.287Z,4.49
2019-01-15T07:41:57.205Z,4.48
2019-01-15T07:44:27.948Z,4.46
2019-01-15T07:47:03.174Z,4.56
2019-01-15T07:49:31.236Z,4.72
2019-01-15T07:51:59.794Z,4.68
2019-01-15T07:54:29.089Z,4.64
2019-01-15T07:56:57.048Z,4.60
2019-01-15T07:59:27.699Z,4.57
2019-01-15T08:01:56.942Z,4.65
2019-01-15T08:04:25.050Z,4.64
2019-01-15T08:06:53.367Z,4.75
2019-01-15T08:09:22.935Z,4.78
2019-01-15T08:11:53.885Z,4.77
2019-01-15T08:14:24.940Z,4.87
2019-01-15T08:16:54.368Z,4.55
2019-01-15T08:19:24.872Z,4.93
2019-01-15T08:21:55.920Z,5.02
2019-01-15T08:24:25.501Z,5.05
2019-01-15T08:26:53.561Z,5.11
2019-01-15T08:29:21.416Z,5.17
2019-01-15T08:31:49.073Z,4.78
2019-01-15T08:34:16.996Z,5.31
2019-01-15T08:36:45.129Z,5.41
2019-01-15T08:39:15.731Z,5.36
2019-01-15T08:41:46.513Z,5.39
2019-01-15T08:44:21.301Z,5.40
2019-01-15T08:46:50.364Z,5.31
2019-01-15T08:49:24.021Z,5.37
2019-01-15T08:51:52.422Z,5.43
2019-01-15T08:54:20.709Z,5.39
2019-01-15T08:56:49.736Z,4.99
2019-01-15T08:59:17.935Z,5.42
2019-01-15T09:01:45.566Z,5.32
2019-01-15T09:04:13.172Z,5.43
2019-01-15T09:06:41.856Z,5.49
2019-01-15T09:09:09.543Z,5.57
2019-01-15T09:11:37.362Z,5.91
2019-01-15T09:14:05.541Z,5.91
2019-01-15T09:16:34.795Z,5.92
2019-01-15T09:19:05.960Z,6.02
2019-01-15T09:21:34.634Z,6.13
2019-01-15T09:24:02.839Z,6.51
2019-01-15T09:26:30.463Z,6.51
2019-01-15T09:28:58.482Z,6.66
2019-01-15T09:31:27.777Z,6.78
2019-01-15T09:33:59.746Z,6.78
2019-01-15T09:36:27.823Z,6.67
2019-01-15T09:38:55.506Z,6.55
2019-01-15T09:41:24.810Z,6.25
2019-01-15T09:43:57.216Z,6.35
2019-01-15T09:46:28.154Z,6.04
2019-01-15T09:48:59.134Z,6.04
2019-01-15T09:51:29.097Z,6.34
2019-01-15T09:53:56.863Z,6.50
2019-01-15T09:56:25.746Z,6.07
2019-01-15T09:58:55.236Z,6.65
2019-01-15T10:01:23.063Z,6.73
2019-01-15T10:03:50.928Z,6.68
2019-01-15T10:06:19.244Z,6.78
2019-01-15T10:08:47.994Z,6.81
2019-01-15T10:11:21.848Z,6.81
2019-01-15T10:13:51.412Z,6.73
2019-01-15T10:16:23.672Z,6.72
2019-01-15T10:18:51.478Z,6.72
2019-01-15T10:21:22.923Z,6.55
2019-01-15T10:23:51.292Z,6.55
2019-01-15T10:26:20.547Z,6.54
2019-01-15T10:28:54.819Z,6.54
2019-01-15T10:32:17.158Z,6.62
2019-01-15T10:34:46.712Z,6.62
2019-01-15T10:37:15.495Z,6.79
2019-01-15T10:39:43.479Z,6.79
2019-01-15T10:42:12.977Z,6.58
2019-01-15T10:44:48.449Z,6.60
2019-01-15T10:47:11.797Z,6.54
2019-01-15T10:49:39.670Z,6.54
2019-01-15T10:52:07.403Z,6.49
2019-01-15T10:54:36.473Z,6.57
2019-01-15T10:57:08.828Z,6.86
2019-01-15T10:59:37.619Z,7.10
2019-01-15T11:02:10.426Z,7.17
2019-01-15T11:04:41.890Z,7.20
2019-01-15T11:07:09.938Z,7.11
2019-01-15T11:09:37.857Z,7.08
2019-01-15T11:12:05.746Z,7.13
2019-01-15T11:14:34.128Z,7.32
2019-01-15T11:17:02.202Z,7.41
2019-01-15T11:19:31.459Z,7.41
2019-01-15T11:22:04.406Z,7.46
2019-01-15T11:24:41.375Z,7.53
2019-01-15T11:27:09.797Z,7.64
2019-01-15T11:29:37.824Z,7.70
2019-01-15T11:32:05.701Z,7.60
2019-01-15T11:34:35.516Z,7.70
2019-01-15T11:37:03.474Z,7.83
2019-01-15T11:39:31.123Z,7.76
2019-01-15T11:41:58.712Z,7.74
2019-01-15T11:44:26.831Z,7.80
2019-01-15T11:46:56.243Z,7.75
2019-01-15T11:49:25.168Z,7.76
2019-01-15T11:51:54.264Z,7.76
2019-01-15T11:54:26.149Z,7.67
2019-01-15T11:56:54.525Z,7.80
2019-01-15T11:59:25.660Z,7.89
2019-01-15T12:02:13.356Z,7.89
2019-01-15T12:04:49.733Z,7.87
2019-01-15T12:07:37.075Z,7.89
2019-01-15T12:10:29.848Z,7.67
2019-01-15T12:13:15.295Z,7.56
2019-01-15T12:16:05.384Z,7.48
2019-01-15T12:18:48.667Z,7.36
2019-01-15T12:21:34.994Z,7.44
2019-01-15T12:24:23.509Z,7.50
2019-01-15T12:27:20.164Z,7.50
2019-01-15T12:30:12.895Z,7.37
2019-01-15T12:33:03.046Z,7.30
2019-01-15T12:35:48.656Z,7.25
2019-01-15T12:38:34.546Z,7.22
2019-01-15T12:41:41.816Z,7.17
2019-01-15T12:44:27.190Z,7.12
2019-01-15T12:47:13.680Z,7.15
2019-01-15T12:50:00.218Z,7.21
2019-01-15T12:53:00.312Z,7.42
2019-01-15T12:55:48.824Z,7.33
2019-01-15T12:58:38.741Z,7.33
2019-01-15T13:01:41.181Z,7.32
2019-01-15T13:04:34.347Z,7.35
2019-01-15T13:07:27.454Z,7.47
2019-01-15T13:10:12.813Z,7.43
2019-01-15T13:13:09.974Z,7.49
2019-01-15T13:15:58.935Z,7.35
2019-01-15T13:19:02.982Z,7.48
2019-01-15T13:21:58.890Z,7.47
2019-01-15T13:24:36.599Z,7.51
2019-01-15T13:27:31.022Z,7.53
2019-01-15T13:30:31.586Z,7.47
2019-01-15T13:33:19.103Z,7.41
2019-01-15T13:36:05.648Z,7.41
2019-01-15T13:38:57.001Z,7.34
2019-01-15T13:41:54.558Z,7.28
2019-01-15T13:44:40.532Z,7.38
2019-01-15T13:47:26.475Z,7.46
2019-01-15T13:50:13.257Z,7.55
2019-01-15T13:53:16.626Z,7.44
2019-01-15T13:55:59.889Z,7.49
2019-01-15T13:58:56.600Z,7.30
2019-01-15T14:01:58.276Z,7.35
2019-01-15T14:04:43.914Z,7.35
2019-01-15T14:07:38.980Z,7.43
2019-01-15T14:10:34.641Z,7.49
2019-01-15T14:13:24.587Z,7.44
2019-01-15T14:16:08.622Z,7.47
2019-01-15T14:18:55.518Z,7.53
2019-01-15T14:21:42.832Z,7.58
2019-01-15T14:24:30.097Z,7.68
2019-01-15T14:27:31.053Z,7.69
2019-01-15T14:30:27.418Z,7.60
2019-01-15T14:33:07.977Z,7.54
2019-01-15T14:36:00.851Z,7.52
2019-01-15T14:38:57.883Z,7.57
2019-01-15T14:41:57.219Z,7.58
2019-01-15T14:44:43.786Z,7.01
2019-01-15T14:47:31.008Z,7.43
2019-01-15T14:50:17.759Z,7.39
2019-01-15T14:53:06.940Z,7.44
2019-01-15T14:55:46.727Z,7.41
2019-01-15T14:58:34.113Z,7.37
2019-01-15T15:01:20.752Z,7.38
2019-01-15T15:04:17.435Z,7.45
2019-01-15T15:06:54.114Z,7.46
2019-01-15T15:09:48.735Z,7.37
2019-01-15T15:12:45.642Z,7.37
2019-01-15T15:16:03.613Z,7.29
2019-01-15T15:18:39.889Z,7.34
2019-01-15T15:21:27.468Z,7.19
2019-01-15T15:24:14.375Z,7.15
2019-01-15T15:27:18.713Z,7.22
2019-01-15T15:30:16.823Z,7.13
2019-01-15T15:33:16.864Z,7.18
2019-01-15T15:36:13.603Z,7.16
2019-01-15T15:39:00.814Z,7.16
2019-01-15T15:41:49.016Z,7.11
2019-01-15T15:44:49.516Z,7.16
2019-01-15T15:47:51.195Z,7.15
2019-01-15T15:50:48.993Z,7.17
2019-01-15T15:53:36.009Z,7.31
2019-01-15T15:56:27.781Z,7.26
2019-01-15T15:59:22.585Z,7.19
2019-01-15T16:02:08.709Z,7.21
2019-01-15T16:04:47.886Z,7.28
2019-01-15T16:07:34.232Z,7.24
2019-01-15T16:10:35.006Z,7.31
2019-01-15T16:13:36.080Z,7.34
2019-01-15T16:16:32.718Z,7.31
2019-01-15T16:19:40.367Z,7.36
2019-01-15T16:22:48.122Z,7.50
2019-01-15T16:25:42.614Z,7.37
2019-01-15T16:28:31.459Z,7.37
2019-01-15T16:31:19.684Z,7.42
2019-01-15T16:34:06.561Z,7.30
2019-01-15T16:36:55.714Z,7.30
2019-01-15T16:39:37.591Z,7.29
2019-01-15T16:42:24.906Z,7.26
2019-01-15T16:45:29.604Z,7.16
2019-01-15T16:48:06.435Z,7.16
2019-01-15T16:50:50.317Z,7.12
2019-01-15T16:53:38.718Z,7.18
2019-01-15T16:56:26.580Z,7.18
2019-01-15T16:59:26.416Z,7.17
2019-01-15T17:02:15.657Z,7.17
2019-01-15T17:05:20.832Z,7.02
2019-01-15T17:08:34.908Z,7.02
2019-01-15T17:11:21.012Z,6.97
2019-01-15T17:14:08.217Z,6.99
2019-01-15T17:17:05.310Z,6.99
2019-01-15T17:19:57.495Z,7.01
2019-01-15T17:22:37.908Z,7.07
2019-01-15T17:25:24.723Z,7.07
2019-01-15T17:28:12.524Z,7.07
2019-01-15T17:30:59.022Z,7.04
2019-01-15T17:33:49.913Z,7.14
2019-01-15T17:36:41.478Z,7.21
2019-01-15T17:39:33.227Z,7.30
2019-01-15T17:42:19.421Z,7.33
2019-01-15T17:45:05.566Z,7.33
2019-01-15T17:48:03.157Z,7.37
2019-01-15T17:51:12.970Z,7.40
2019-01-15T17:54:09.671Z,7.38
2019-01-15T17:56:55.385Z,7.37
2019-01-15T17:59:50.267Z,7.41
2019-01-15T18:02:43.351Z,7.41
2019-01-15T18:05:30.881Z,7.38
2019-01-15T18:08:17.903Z,7.44
2019-01-15T18:11:03.568Z,7.46
2019-01-15T18:14:03.382Z,7.29
2019-01-15T18:16:56.887Z,7.30
2019-01-15T18:19:46.682Z,7.23
2019-01-15T18:22:35.166Z,7.33
2019-01-15T18:25:33.234Z,7.42
2019-01-15T18:28:32.917Z,7.41
2019-01-15T18:31:33.912Z,7.44
2019-01-15T18:34:21.258Z,7.38
2019-01-15T18:37:13.280Z,7.51
2019-01-15T18:40:04.061Z,7.54
2019-01-15T18:42:49.691Z,7.11
2019-01-15T18:45:46.364Z,7.42
2019-01-15T18:48:37.593Z,7.42
2019-01-15T18:51:17.419Z,7.55
2019-01-15T18:54:03.359Z,7.70
2019-01-15T18:56:47.812Z,7.63
2019-01-15T18:59:35.303Z,7.76
2019-01-15T19:02:31.835Z,7.74
2019-01-15T19:05:07.190Z,7.63
2019-01-15T19:07:55.956Z,7.73
2019-01-15T19:10:51.142Z,7.65
2019-01-15T19:13:42.326Z,7.69
2019-01-15T19:16:29.105Z,7.74
2019-01-15T19:19:16.056Z,7.80
2019-01-15T19:22:06.508Z,7.73
2019-01-15T19:25:06.570Z,7.77
2019-01-15T19:27:54.020Z,7.69
2019-01-15T19:30:47.467Z,7.75
2019-01-15T19:33:42.509Z,7.68
2019-01-15T19:36:32.071Z,7.68
2019-01-15T19:39:15.678Z,7.70
2019-01-15T19:42:03.477Z,7.69
2019-01-15T19:44:59.790Z,7.64
2019-01-15T19:48:10.148Z,7.65
2019-01-15T19:50:56.406Z,7.65
2019-01-15T19:53:46.120Z,7.60
2019-01-15T19:56:34.173Z,7.66
2019-01-15T19:59:21.781Z,7.62
2019-01-15T20:02:08.259Z,7.63
2019-01-15T20:05:03.003Z,7.61
2019-01-15T20:08:14.460Z,7.67
2019-01-15T20:11:09.660Z,7.52
2019-01-15T20:13:58.465Z,7.60
2019-01-15T20:16:58.872Z,7.55
2019-01-15T20:20:00.698Z,7.62
2019-01-15T20:22:48.849Z,7.67
2019-01-15T20:25:33.107Z,7.73
2019-01-15T20:28:22.926Z,7.60
2019-01-15T20:31:24.351Z,7.59
2019-01-15T20:34:09.455Z,7.53
2019-01-15T20:36:56.561Z,7.56
2019-01-15T20:39:43.656Z,7.55
2019-01-15T20:42:39.086Z,7.52
2019-01-15T20:45:40.813Z,7.54
2019-01-15T20:48:45.358Z,7.63
2019-01-15T20:51:38.715Z,7.72
2019-01-15T20:54:41.851Z,7.75
2019-01-15T20:57:29.373Z,7.82
2019-01-15T21:00:20.120Z,7.72
2019-01-15T21:03:04.138Z,7.71
2019-01-15T21:05:56.900Z,7.70
2019-01-15T21:08:52.277Z,7.74
2019-01-15T21:11:46.296Z,7.78
2019-01-15T21:14:28.889Z,7.79
2019-01-15T21:17:16.819Z,7.83
2019-01-15T21:20:14.425Z,7.65
2019-01-15T21:23:00.382Z,7.73
2019-01-15T21:25:52.748Z,7.75
2019-01-15T21:28:38.534Z,7.76
2019-01-15T21:31:24.253Z,7.75
2019-01-15T21:34:11.029Z,7.80
2019-01-15T21:37:03.036Z,7.80
2019-01-15T21:39:59.940Z,7.85
2019-01-15T21:42:50.262Z,7.86
2019-01-15T21:45:36.371Z,7.85
2019-01-15T21:48:28.463Z,7.72
2019-01-15T21:51:23.069Z,7.66
2019-01-15T21:54:11.689Z,7.69
2019-01-15T21:57:02.131Z,7.62
2019-01-15T21:59:49.145Z,7.64
2019-01-15T22:02:39.863Z,7.73
2019-01-15T22:05:32.281Z,7.72
2019-01-15T22:08:22.924Z,7.66
2019-01-15T22:11:10.884Z,7.74
2019-01-15T22:14:00.997Z,7.76
2019-01-15T22:16:50.671Z,7.69
2019-01-15T22:19:49.588Z,7.28
2019-01-15T22:22:36.485Z,7.69
2019-01-15T22:25:40.043Z,7.60
2019-01-15T22:28:43.728Z,7.61
2019-01-15T22:31:21.925Z,7.45
2019-01-15T22:34:20.948Z,7.48
2019-01-15T22:37:20.351Z,7.52
2019-01-15T22:40:06.797Z,7.01
2019-01-15T22:43:06.364Z,7.55
2019-01-15T22:45:54.929Z,7.61
2019-01-15T22:48:32.507Z,7.60
2019-01-15T22:51:21.268Z,7.64
2019-01-15T22:54:01.593Z,7.65
2019-01-15T22:56:55.192Z,7.66
2019-01-15T22:59:43.769Z,7.61
2019-01-15T23:02:42.064Z,7.57
2019-01-15T23:05:29.842Z,7.61
2019-01-15T23:08:19.156Z,7.67
2019-01-15T23:11:24.550Z,7.60
2019-01-15T23:14:21.070Z,7.69
2019-01-15T23:17:03.981Z,7.69
2019-01-15T23:19:52.304Z,7.61
2019-01-15T23:22:46.725Z,7.66
2019-01-15T23:25:37.431Z,7.56
2019-01-15T23:28:17.511Z,7.54
2019-01-15T23:31:07.674Z,7.55
2019-01-15T23:33:54.782Z,7.55
2019-01-15T23:36:40.630Z,7.65
2019-01-15T23:39:29.708Z,7.62
2019-01-15T23:42:18.227Z,7.53
2019-01-15T23:45:07.990Z,7.59
2019-01-15T23:47:53.680Z,7.58
2019-01-15T23:50:39.157Z,7.55
2019-01-15T23:53:30.671Z,7.13
2019-01-15T23:56:29.957Z,7.44
2019-01-15T23:59:09.412Z,7.30
